Port Blandford, Canada
Current Conditions -  °F | °C
As of 12:00 AM on Friday 19 Dec 2014 (Local Time) from CYQX Reporting Station
Drizzle Drizzle  
Wind Chill: 33°   Ceiling: 100
Heat Index: 39°   Visibility: 0.12mi
Dew Point: 39°   Wind: 9mph
Humidity: 100%   Direction: 130°SE
Pressure: 29.56"   Gusts: NA
Location:  48.35°N, 54.17°W
Report Text: CYQX 190300Z 13008KT 1/8SM R03/2600FT/D R13/2000FT/N -DZ FG VV001 04/04 A2956 RMK FG8 PRESRR SLP015
Loading
Personal Weather Stations






























Interactive Weather Map New forecast layout! Learn more

10-Day Weather Forecast

Advertisements
Track Severe Weather on mobile